Time;durP1;ratioP1;P1;durP2;ratioP2;P2;SDS_P1;SDS_P2;PMS_P1;PMS_P2;Temp;Humidity;BMP_temperature;BMP_pressure;BME280_temperature;BME280_humidity;BME280_pressure;Samples;Min_cycle;Max_cycle;Signal;HPM_P1;HPM_P2
2022/10/18 00:00:57;;;;;;;1142.05;379.15;;;15.90;99.90;;;;;;5147227;27;20297;-51
2022/10/18 00:03:25;;;;;;;1257.55;398.52;;;15.90;99.90;;;;;;5151955;27;20323;-51
2022/10/18 00:05:53;;;;;;;1374.53;635.67;;;15.90;99.90;;;;;;5152634;27;20317;-51
2022/10/18 00:08:21;;;;;;;1231.13;438.60;;;15.90;99.90;;;;;;5146048;27;20659;-50
2022/10/18 00:10:50;;;;;;;856.15;284.58;;;15.90;99.90;;;;;;5145994;27;20217;-50
2022/10/18 00:13:19;;;;;;;1150.70;564.00;;;15.90;99.90;;;;;;5130955;27;20219;-51
2022/10/18 00:15:53;;;;;;;980.25;324.48;;;16.00;99.90;;;;;;5151019;27;20304;-51
2022/10/18 00:18:21;;;;;;;1413.45;431.42;;;16.00;99.90;;;;;;5152041;27;20663;-51
2022/10/18 00:20:57;;;;;;;1201.47;503.90;;;16.00;99.90;;;;;;5147192;27;20293;-51
2022/10/18 00:23:26;;;;;;;876.13;309.05;;;16.00;99.90;;;;;;5151546;27;20284;-50
2022/10/18 00:26:02;;;;;;;1320.03;492.60;;;16.00;99.90;;;;;;5151454;27;20221;-51
2022/10/18 00:28:30;;;;;;;1111.13;447.35;;;16.10;99.90;;;;;;5148285;27;20682;-50
2022/10/18 00:31:10;;;;;;;1115.30;332.33;;;16.10;99.90;;;;;;5147831;27;20202;-51
2022/10/18 00:33:38;;;;;;;1121.10;425.73;;;16.10;99.90;;;;;;5138297;27;20663;-51
2022/10/18 00:36:06;;;;;;;766.13;225.68;;;16.10;99.90;;;;;;5149136;27;20304;-51
2022/10/18 00:38:34;;;;;;;1260.82;396.63;;;16.10;99.90;;;;;;5151985;27;20212;-51
2022/10/18 00:41:03;;;;;;;1629.10;696.85;;;16.20;99.90;;;;;;5145201;27;20204;-51
2022/10/18 00:43:31;;;;;;;1189.38;442.70;;;16.20;99.90;;;;;;5151323;27;20212;-51
2022/10/18 00:46:01;;;;;;;1027.22;354.23;;;16.30;99.90;;;;;;5138060;27;20222;-50
2022/10/18 00:48:29;;;;;;;1496.88;477.90;;;16.20;99.90;;;;;;5151592;27;20209;-51
2022/10/18 00:50:57;;;;;;;1334.20;490.15;;;16.30;99.90;;;;;;5150405;27;20811;-50
2022/10/18 00:53:25;;;;;;;1355.50;515.15;;;16.30;99.90;;;;;;5150735;27;20320;-51
2022/10/18 00:55:53;;;;;;;1337.00;529.42;;;16.30;99.90;;;;;;5150484;27;20222;-51
2022/10/18 00:58:21;;;;;;;1183.30;430.25;;;16.40;99.90;;;;;;5147509;27;20298;-51
2022/10/18 01:00:49;;;;;;;1456.30;516.90;;;16.40;99.90;;;;;;5151675;27;20288;-51
2022/10/18 01:03:19;;;;;;;1518.75;539.35;;;16.30;99.90;;;;;;5150060;27;20754;-51
2022/10/18 01:05:48;;;;;;;1213.18;421.98;;;16.30;99.90;;;;;;5151562;27;20325;-51
2022/10/18 01:08:44;;;;;;;1212.13;468.15;;;16.30;99.90;;;;;;5151170;27;20214;-51
2022/10/18 01:11:33;;;;;;;1330.70;499.42;;;16.30;99.90;;;;;;5139640;27;20870;-51
2022/10/18 01:14:15;;;;;;;1226.13;491.27;;;16.30;99.90;;;;;;5133492;27;20198;-51
2022/10/18 01:16:50;;;;;;;1080.80;433.02;;;16.30;99.90;;;;;;5150789;27;20309;-51
2022/10/18 01:19:43;;;;;;;1355.60;554.70;;;16.30;99.90;;;;;;5147671;27;20198;-51
2022/10/18 01:22:21;;;;;;;1832.43;621.25;;;16.30;99.90;;;;;;5150712;27;20293;-51
2022/10/18 01:25:03;;;;;;;1377.75;490.67;;;16.30;99.90;;;;;;5139166;27;20281;-51
2022/10/18 01:27:47;;;;;;;1584.25;620.72;;;16.30;99.90;;;;;;5145505;27;20313;-51
2022/10/18 01:30:31;;;;;;;1525.43;458.48;;;16.30;99.90;;;;;;5151237;27;20229;-51
2022/10/18 01:33:03;;;;;;;1011.83;238.27;;;16.30;99.90;;;;;;5121264;27;20720;-51
2022/10/18 01:35:37;;;;;;;1344.38;635.30;;;16.30;99.90;;;;;;5148355;27;20222;-51
2022/10/18 01:38:10;;;;;;;1931.10;577.47;;;16.30;99.90;;;;;;5122505;27;20300;-51
2022/10/18 01:40:41;;;;;;;1033.30;384.55;;;16.30;99.90;;;;;;5149151;27;20210;-50
2022/10/18 01:43:10;;;;;;;1126.55;440.08;;;16.30;99.90;;;;;;5150172;27;20285;-50
2022/10/18 01:45:41;;;;;;;1376.80;642.53;;;16.40;99.90;;;;;;5143241;27;20312;-51
2022/10/18 01:48:10;;;;;;;1162.85;506.98;;;16.40;99.90;;;;;;5148806;27;20682;-50
2022/10/18 01:50:38;;;;;;;1341.55;566.20;;;16.30;99.90;;;;;;5145687;27;20209;-51
2022/10/18 01:53:06;;;;;;;1145.30;387.77;;;16.30;99.90;;;;;;5138791;27;20228;-51
2022/10/18 01:55:42;;;;;;;1370.55;532.85;;;16.30;99.90;;;;;;5150404;27;20222;-54
2022/10/18 01:58:18;;;;;;;1469.07;524.60;;;16.20;99.90;;;;;;5151971;27;20820;-51
2022/10/18 02:00:54;;;;;;;1307.47;414.73;;;16.20;99.90;;;;;;5131424;27;20698;-51
2022/10/18 02:03:25;;;;;;;1302.10;537.72;;;16.20;99.90;;;;;;5136582;27;20292;-51
2022/10/18 02:05:59;;;;;;;1449.25;557.50;;;16.20;99.90;;;;;;5126519;27;20302;-51
2022/10/18 02:08:31;;;;;;;1344.25;608.78;;;16.20;99.90;;;;;;5148728;27;20309;-51
2022/10/18 02:11:03;;;;;;;1432.90;636.30;;;16.20;99.90;;;;;;5146992;27;20289;-50
2022/10/18 02:13:36;;;;;;;1435.53;633.10;;;16.10;99.90;;;;;;5154390;27;20310;-51
2022/10/18 02:16:10;;;;;;;1459.78;628.72;;;16.00;99.90;;;;;;5154521;27;20309;-50
2022/10/18 02:18:42;;;;;;;1249.65;641.85;;;16.00;99.90;;;;;;5139647;27;20297;-51
2022/10/18 02:21:13;;;;;;;1338.00;561.78;;;16.00;99.90;;;;;;5154898;27;20631;-51
2022/10/18 02:23:43;;;;;;;1222.00;559.67;;;16.00;99.90;;;;;;5153679;27;20749;-51
2022/10/18 02:26:12;;;;;;;964.40;357.98;;;16.00;99.90;;;;;;5152474;27;20312;-51
2022/10/18 02:28:40;;;;;;;1182.30;486.38;;;16.00;99.90;;;;;;5154226;27;20293;-51
2022/10/18 02:31:15;;;;;;;1100.60;456.15;;;16.00;99.90;;;;;;5147614;27;20234;-51
2022/10/18 02:33:50;;;;;;;1281.45;508.30;;;16.00;99.90;;;;;;5147321;27;20222;-50
2022/10/18 02:36:23;;;;;;;1222.07;505.73;;;16.00;99.90;;;;;;5144936;27;20339;-51
2022/10/18 02:38:56;;;;;;;848.97;344.13;;;16.00;99.90;;;;;;5146749;27;20202;-50
2022/10/18 02:41:25;;;;;;;1242.10;491.85;;;16.00;99.90;;;;;;5154211;27;20293;-51
2022/10/18 02:43:54;;;;;;;1263.03;546.25;;;16.00;99.90;;;;;;5152646;27;20206;-51
2022/10/18 02:46:23;;;;;;;1337.45;490.33;;;16.10;99.90;;;;;;5149791;27;20599;-51
2022/10/18 02:48:51;;;;;;;1210.50;597.30;;;16.10;99.90;;;;;;5150108;27;20309;-51
2022/10/18 02:51:19;;;;;;;1259.13;447.38;;;16.10;99.90;;;;;;5152667;27;20321;-51
2022/10/18 02:53:47;;;;;;;1452.10;588.10;;;16.10;99.90;;;;;;5153466;27;21011;-51
2022/10/18 02:56:15;;;;;;;1334.35;529.17;;;16.10;99.90;;;;;;5143313;27;20593;-51
2022/10/18 02:58:44;;;;;;;1473.10;567.80;;;16.10;99.90;;;;;;5154169;27;20241;-51
2022/10/18 03:01:12;;;;;;;1038.90;394.45;;;16.10;99.90;;;;;;5153672;27;21063;-50
2022/10/18 03:03:41;;;;;;;1351.32;442.02;;;16.20;99.90;;;;;;5144360;27;20199;-51
2022/10/18 03:06:09;;;;;;;1139.78;495.73;;;16.20;99.90;;;;;;5152281;27;20237;-50
2022/10/18 03:08:37;;;;;;;1465.13;675.60;;;16.20;99.90;;;;;;5137505;27;20210;-51
2022/10/18 03:11:06;;;;;;;1597.63;760.78;;;16.20;99.90;;;;;;5149237;27;20572;-51
2022/10/18 03:13:34;;;;;;;1032.20;386.48;;;16.20;99.90;;;;;;5153053;27;20309;-51
2022/10/18 03:16:02;;;;;;;1466.20;565.13;;;16.30;99.90;;;;;;5153210;27;20312;-50
2022/10/18 03:18:30;;;;;;;1278.07;413.48;;;16.20;99.90;;;;;;5153828;27;20202;-51
2022/10/18 03:21:03;;;;;;;1263.05;482.10;;;16.30;99.90;;;;;;5153169;27;20214;-51
2022/10/18 03:23:31;;;;;;;1114.55;437.17;;;16.30;99.90;;;;;;5151874;27;20285;-50
2022/10/18 03:25:59;;;;;;;1350.53;446.65;;;16.30;99.90;;;;;;5144973;27;20225;-51
2022/10/18 03:28:27;;;;;;;1148.78;407.52;;;16.30;99.90;;;;;;5148254;27;20321;-51
2022/10/18 03:31:00;;;;;;;1248.82;528.17;;;16.20;99.90;;;;;;5139464;27;20199;-51
2022/10/18 03:33:28;;;;;;;1030.43;365.30;;;16.30;99.90;;;;;;5149979;27;20301;-51
2022/10/18 03:35:56;;;;;;;1180.57;542.05;;;16.30;99.90;;;;;;5152955;27;20229;-50
2022/10/18 03:38:26;;;;;;;1095.82;602.63;;;16.30;99.90;;;;;;5152854;27;20245;-51
2022/10/18 03:40:54;;;;;;;1001.47;315.60;;;16.30;99.90;;;;;;5153050;27;20371;-51
2022/10/18 03:43:22;;;;;;;1241.60;494.30;;;16.30;99.90;;;;;;5152725;27;20595;-51
2022/10/18 03:45:50;;;;;;;1080.95;465.02;;;16.20;99.90;;;;;;5152706;27;20232;-51
2022/10/18 03:48:18;;;;;;;1431.00;519.63;;;16.20;99.90;;;;;;5152590;27;20206;-51
2022/10/18 03:50:46;;;;;;;943.88;333.50;;;16.20;99.90;;;;;;5152730;27;20667;-51
2022/10/18 03:53:14;;;;;;;1471.88;601.08;;;16.20;99.90;;;;;;5146906;27;20298;-51
2022/10/18 03:55:44;;;;;;;1021.08;383.10;;;16.20;99.90;;;;;;5151871;27;20224;-51
2022/10/18 03:58:12;;;;;;;1393.32;588.13;;;16.10;99.90;;;;;;5152678;27;20210;-51
2022/10/18 04:00:40;;;;;;;1144.50;469.00;;;16.10;99.90;;;;;;5152404;27;20662;-51
2022/10/18 04:03:08;;;;;;;1100.05;454.90;;;16.10;99.90;;;;;;5152009;27;20220;-51
2022/10/18 04:05:36;;;;;;;1136.15;448.50;;;16.10;99.90;;;;;;5151591;27;20233;-50
2022/10/18 04:08:05;;;;;;;905.00;352.48;;;16.10;99.90;;;;;;5147003;27;20211;-51
2022/10/18 04:10:33;;;;;;;1703.13;621.85;;;16.10;99.90;;;;;;5143601;27;20202;-51
2022/10/18 04:13:02;;;;;;;1178.10;462.30;;;16.10;99.90;;;;;;5151756;27;20200;-51
2022/10/18 04:15:30;;;;;;;1709.28;669.38;;;16.10;99.90;;;;;;5145737;27;20237;-51
2022/10/18 04:17:58;;;;;;;1551.53;533.95;;;16.20;99.90;;;;;;5149108;27;20241;-51
2022/10/18 04:20:27;;;;;;;1115.20;556.08;;;16.20;99.90;;;;;;5140021;27;20321;-51
2022/10/18 04:22:56;;;;;;;1288.53;625.53;;;16.20;99.90;;;;;;5151271;27;20738;-51
2022/10/18 04:25:25;;;;;;;1340.65;639.40;;;16.20;99.90;;;;;;5150751;27;20692;-51
2022/10/18 04:27:53;;;;;;;1318.80;498.95;;;16.10;99.90;;;;;;5150696;27;20296;-51
2022/10/18 04:30:22;;;;;;;1260.65;570.22;;;16.10;99.90;;;;;;5124456;27;20297;-51
2022/10/18 04:32:50;;;;;;;1472.60;621.42;;;16.10;99.90;;;;;;5151204;27;20595;-51
2022/10/18 04:35:23;;;;;;;861.03;348.02;;;16.10;99.90;;;;;;5151827;27;20230;-51
2022/10/18 04:37:51;;;;;;;1620.28;586.78;;;16.10;99.90;;;;;;5151620;27;20882;-51
2022/10/18 04:40:19;;;;;;;1317.60;506.70;;;16.10;99.90;;;;;;5151519;27;20209;-50
2022/10/18 04:42:47;;;;;;;1416.20;606.15;;;16.10;99.90;;;;;;5151217;27;20732;-51
2022/10/18 04:45:16;;;;;;;1483.72;585.88;;;16.10;99.90;;;;;;5145487;27;20241;-51
2022/10/18 04:47:45;;;;;;;1757.32;625.70;;;16.10;99.90;;;;;;5144377;27;20285;-51
2022/10/18 04:50:13;;;;;;;1406.85;507.98;;;16.00;99.90;;;;;;5146877;27;20297;-51
2022/10/18 04:52:41;;;;;;;1347.28;494.33;;;16.00;99.90;;;;;;5151285;27;20682;-51
2022/10/18 04:55:10;;;;;;;1483.13;510.65;;;16.00;99.90;;;;;;5150677;27;20773;-51
2022/10/18 04:57:38;;;;;;;1135.30;505.58;;;16.00;99.90;;;;;;5150273;27;20202;-52
2022/10/18 05:00:07;;;;;;;925.75;328.70;;;15.90;99.90;;;;;;5151710;27;20306;-51
2022/10/18 05:02:35;;;;;;;1400.97;563.03;;;15.90;99.90;;;;;;5150622;27;20198;-51
2022/10/18 05:05:05;;;;;;;1364.38;561.95;;;15.90;99.90;;;;;;5144327;27;20314;-51
2022/10/18 05:07:37;;;;;;;1147.40;538.35;;;15.90;99.90;;;;;;5149138;27;20203;-52
2022/10/18 05:10:05;;;;;;;927.00;429.08;;;15.90;99.90;;;;;;5138340;27;20216;-51
2022/10/18 05:12:33;;;;;;;1049.82;568.80;;;15.90;99.90;;;;;;5145167;27;20295;-51
2022/10/18 05:15:02;;;;;;;1107.75;434.40;;;15.90;99.90;;;;;;5151002;27;20229;-51
2022/10/18 05:17:30;;;;;;;1393.57;534.42;;;15.90;99.90;;;;;;5150366;27;20694;-52
2022/10/18 05:19:58;;;;;;;1291.78;500.00;;;15.80;99.90;;;;;;5151301;27;20729;-52
2022/10/18 05:22:28;;;;;;;1324.68;511.98;;;15.80;99.90;;;;;;5151123;27;20202;-51
2022/10/18 05:24:56;;;;;;;941.50;417.42;;;15.80;99.90;;;;;;5150996;27;20250;-52
2022/10/18 05:27:24;;;;;;;1076.20;451.65;;;15.80;99.90;;;;;;5150819;27;20309;-51
2022/10/18 05:29:52;;;;;;;1195.18;501.30;;;15.80;99.90;;;;;;5150483;27;20293;-52
2022/10/18 05:32:20;;;;;;;1009.92;394.73;;;15.80;99.90;;;;;;5142689;27;20202;-51
2022/10/18 05:34:48;;;;;;;1152.55;570.40;;;15.70;99.90;;;;;;5148916;27;20362;-50
2022/10/18 05:37:17;;;;;;;930.85;508.52;;;15.70;99.90;;;;;;5150604;27;20230;-51
2022/10/18 05:39:46;;;;;;;1081.50;454.42;;;15.60;99.90;;;;;;5151278;27;20296;-52
2022/10/18 05:42:15;;;;;;;904.75;383.35;;;15.60;99.90;;;;;;5123939;27;20297;-51
2022/10/18 05:44:42;;;;;;;1278.57;518.72;;;15.60;99.90;;;;;;5150793;27;20648;-51
2022/10/18 05:47:11;;;;;;;942.08;395.48;;;15.50;99.90;;;;;;5150277;27;20233;-51
2022/10/18 05:49:39;;;;;;;954.45;419.45;;;15.50;99.90;;;;;;5150535;27;20214;-51
2022/10/18 05:52:07;;;;;;;889.67;328.48;;;15.50;99.90;;;;;;5150197;27;20570;-51
2022/10/18 05:54:35;;;;;;;1441.43;573.83;;;15.50;99.90;;;;;;5151072;27;20226;-51
2022/10/18 05:57:04;;;;;;;1399.00;576.70;;;15.50;99.90;;;;;;5150479;27;20309;-51
2022/10/18 05:59:32;;;;;;;1999.90;859.20;;;15.50;99.90;;;;;;5150564;27;20317;-51
2022/10/18 06:02:00;;;;;;;1999.90;789.60;;;15.50;99.90;;;;;;5150052;27;20296;-51
2022/10/18 06:04:28;;;;;;;1453.15;577.42;;;15.60;99.90;;;;;;5138026;27;20228;-51
2022/10/18 06:06:56;;;;;;;1138.65;433.98;;;15.60;99.90;;;;;;5143938;27;20938;-51
2022/10/18 06:09:24;;;;;;;1222.22;648.50;;;15.60;99.90;;;;;;5127610;27;20203;-51
2022/10/18 06:11:52;;;;;;;1146.75;592.70;;;15.60;99.90;;;;;;5149665;27;20297;-51
2022/10/18 06:14:22;;;;;;;1080.50;574.80;;;15.60;99.90;;;;;;5150218;27;20206;-51
2022/10/18 06:16:50;;;;;;;1245.57;538.72;;;15.60;99.90;;;;;;5138476;27;20309;-51
2022/10/18 06:19:18;;;;;;;962.97;507.90;;;15.60;99.90;;;;;;5150392;27;20298;-51
2022/10/18 06:21:46;;;;;;;892.60;513.97;;;15.60;99.90;;;;;;5150140;27;20298;-51
2022/10/18 06:24:14;;;;;;;1024.18;513.40;;;15.60;99.90;;;;;;5150211;27;20285;-51
2022/10/18 06:26:42;;;;;;;1318.47;544.95;;;15.60;99.90;;;;;;5150402;27;20219;-51
2022/10/18 06:29:10;;;;;;;1220.85;558.50;;;15.60;99.90;;;;;;5150252;27;20309;-52
2022/10/18 06:31:40;;;;;;;1489.63;555.13;;;15.60;99.90;;;;;;5142557;27;20300;-51
2022/10/18 06:34:08;;;;;;;1188.13;451.25;;;15.60;99.90;;;;;;5149984;27;20297;-51
2022/10/18 06:36:36;;;;;;;1113.43;446.38;;;15.50;99.90;;;;;;5150409;27;20234;-51
2022/10/18 06:39:04;;;;;;;1283.05;540.03;;;15.50;99.90;;;;;;5149842;27;20206;-51
2022/10/18 06:41:32;;;;;;;1392.55;620.03;;;15.50;99.90;;;;;;5134206;27;20731;-53
2022/10/18 06:44:05;;;;;;;1186.85;468.63;;;15.60;99.90;;;;;;5140486;27;20677;-51
2022/10/18 06:46:33;;;;;;;1066.60;476.00;;;15.60;99.90;;;;;;5132746;27;20310;-52
2022/10/18 06:49:03;;;;;;;971.63;399.05;;;15.60;99.90;;;;;;5133089;27;20293;-51
2022/10/18 06:51:31;;;;;;;1121.88;455.08;;;15.60;99.90;;;;;;5128369;27;20229;-51
2022/10/18 06:53:59;;;;;;;1247.88;531.53;;;15.60;99.90;;;;;;5132049;27;20286;-52
2022/10/18 06:56:44;;;;;;;1665.55;628.10;;;15.60;99.90;;;;;;5130079;27;20709;-51
2022/10/18 06:59:12;;;;;;;1407.85;579.33;;;15.60;99.90;;;;;;5130586;27;20814;-51
2022/10/18 07:01:40;;;;;;;1146.32;552.33;;;15.70;99.90;;;;;;5131243;27;20301;-51
2022/10/18 07:04:10;;;;;;;1272.25;644.42;;;15.70;99.90;;;;;;5131571;27;20250;-51
2022/10/18 07:06:38;;;;;;;1480.47;695.30;;;15.70;99.90;;;;;;5132592;27;20313;-51
2022/10/18 07:09:06;;;;;;;1098.75;625.03;;;15.80;99.90;;;;;;5131831;27;20713;-51
2022/10/18 07:11:34;;;;;;;1111.57;679.63;;;15.80;99.90;;;;;;5152242;27;20659;-51
2022/10/18 07:14:03;;;;;;;1079.57;575.40;;;15.80;99.90;;;;;;5144682;27;20222;-51
2022/10/18 07:16:32;;;;;;;1052.85;421.00;;;15.70;99.90;;;;;;5151619;27;20261;-51
2022/10/18 07:19:00;;;;;;;1208.65;494.15;;;15.80;99.90;;;;;;5153130;27;20325;-51
2022/10/18 07:21:30;;;;;;;1415.78;618.08;;;15.80;99.90;;;;;;5153048;27;20264;-51
2022/10/18 07:23:58;;;;;;;1216.35;497.08;;;15.80;99.90;;;;;;5151318;27;20202;-52
2022/10/18 07:26:28;;;;;;;1341.03;480.90;;;15.80;99.90;;;;;;5149098;27;20235;-51
2022/10/18 07:29:00;;;;;;;862.47;334.00;;;15.80;99.90;;;;;;5141762;27;20286;-51
2022/10/18 07:31:30;;;;;;;975.33;731.45;;;15.80;99.90;;;;;;5132415;27;20211;-52
2022/10/18 07:33:58;;;;;;;966.70;417.85;;;15.80;99.90;;;;;;5131976;27;20379;-51
2022/10/18 07:36:27;;;;;;;1577.78;623.75;;;15.80;99.90;;;;;;5132072;27;20318;-51
2022/10/18 07:38:56;;;;;;;1408.43;533.90;;;15.90;99.90;;;;;;5132653;27;20278;-52
2022/10/18 07:41:24;;;;;;;1009.10;610.30;;;15.90;99.90;;;;;;5132455;27;20199;-52
2022/10/18 07:43:53;;;;;;;1091.32;408.10;;;15.90;99.90;;;;;;5131579;27;20221;-51
2022/10/18 07:46:22;;;;;;;1472.25;743.45;;;15.80;99.90;;;;;;5132061;27;21070;-51
2022/10/18 07:48:50;;;;;;;1437.25;631.60;;;15.90;99.90;;;;;;5132296;27;20203;-52
2022/10/18 07:51:20;;;;;;;1335.03;695.60;;;15.90;99.90;;;;;;5132512;27;20207;-51
2022/10/18 07:53:48;;;;;;;1286.25;769.67;;;15.90;99.90;;;;;;5126533;27;21011;-51
2022/10/18 07:56:19;;;;;;;1347.22;616.08;;;15.90;99.90;;;;;;5130056;27;20231;-51
2022/10/18 07:58:51;;;;;;;1215.32;575.63;;;15.90;99.90;;;;;;5124261;27;20241;-52
2022/10/18 08:01:21;;;;;;;1248.68;562.78;;;15.90;99.90;;;;;;5130998;27;20207;-51
2022/10/18 08:03:49;;;;;;;1507.85;664.50;;;15.90;99.90;;;;;;5131775;27;20206;-51
2022/10/18 08:06:19;;;;;;;1184.50;748.63;;;15.90;99.90;;;;;;5131979;27;20249;-51
2022/10/18 08:08:47;;;;;;;1592.72;568.97;;;15.90;99.90;;;;;;5131941;27;20205;-51
2022/10/18 08:11:18;;;;;;;1269.57;515.28;;;15.80;99.90;;;;;;5119690;27;20198;-51
2022/10/18 08:13:46;;;;;;;1271.18;565.03;;;15.90;99.90;;;;;;5141545;27;20242;-51
2022/10/18 08:16:16;;;;;;;1264.13;530.92;;;15.90;99.90;;;;;;5150083;27;20227;-52
2022/10/18 08:18:45;;;;;;;1282.28;541.75;;;15.90;99.90;;;;;;5152637;27;20202;-51
2022/10/18 08:21:14;;;;;;;1340.20;658.30;;;15.90;99.90;;;;;;5144812;27;20298;-51
2022/10/18 08:23:43;;;;;;;1059.00;520.05;;;15.90;99.90;;;;;;5150538;27;20297;-51
2022/10/18 08:26:13;;;;;;;1509.43;556.78;;;15.90;99.90;;;;;;5145303;27;20309;-51
2022/10/18 08:28:43;;;;;;;1161.05;652.70;;;15.90;99.90;;;;;;5131853;27;20677;-51
2022/10/18 08:31:30;;;;;;;1088.93;504.25;;;15.90;99.90;;;;;;5146339;27;20255;-51
2022/10/18 08:33:59;;;;;;;1213.13;615.05;;;15.90;99.90;;;;;;5139101;27;20255;-52
2022/10/18 08:36:27;;;;;;;1323.47;640.45;;;16.00;99.90;;;;;;5151353;27;20321;-52
2022/10/18 08:38:55;;;;;;;1231.35;565.78;;;16.00;99.90;;;;;;5138433;27;20206;-52
2022/10/18 08:41:48;;;;;;;1421.78;690.15;;;15.90;99.90;;;;;;5148077;27;20290;-52
2022/10/18 08:44:22;;;;;;;1065.55;570.97;;;16.00;99.90;;;;;;5128218;27;20210;-51
2022/10/18 08:46:55;;;;;;;1176.28;568.33;;;16.00;99.90;;;;;;5150145;27;20261;-51
2022/10/18 08:49:28;;;;;;;1235.05;474.67;;;16.00;99.90;;;;;;5151003;27;20281;-51
2022/10/18 08:51:57;;;;;;;1139.07;522.05;;;16.00;99.90;;;;;;5150381;27;20288;-52
2022/10/18 08:54:31;;;;;;;1124.55;597.67;;;16.10;99.90;;;;;;5141501;27;20242;-51
2022/10/18 08:57:01;;;;;;;1099.63;472.77;;;16.10;99.90;;;;;;5146609;27;20267;-52
2022/10/18 08:59:37;;;;;;;1232.57;572.97;;;16.10;99.90;;;;;;5142309;27;20214;-52
2022/10/18 09:02:16;;;;;;;1075.47;490.25;;;16.00;99.90;;;;;;5148539;27;20207;-52
2022/10/18 09:04:52;;;;;;;1751.80;650.70;;;16.00;99.90;;;;;;5151454;27;20205;-51
2022/10/18 09:07:43;;;;;;;1029.53;433.25;;;16.10;99.90;;;;;;5140368;27;20297;-52
2022/10/18 09:10:22;;;;;;;1204.47;558.08;;;16.20;99.90;;;;;;5127380;27;20817;-51
2022/10/18 09:13:05;;;;;;;908.58;524.00;;;16.20;99.90;;;;;;5150878;27;20288;-52
2022/10/18 09:15:43;;;;;;;1156.65;557.80;;;16.30;99.90;;;;;;5139442;27;20325;-51
2022/10/18 09:18:26;;;;;;;1634.40;606.00;;;16.30;99.90;;;;;;5148905;27;20312;-52
2022/10/18 09:20:57;;;;;;;1136.55;513.80;;;16.40;99.90;;;;;;5151449;27;20209;-51
2022/10/18 09:23:46;;;;;;;1263.07;586.50;;;16.50;99.90;;;;;;5148279;27;20228;-51
2022/10/18 09:26:18;;;;;;;1079.28;595.33;;;16.60;99.90;;;;;;5139781;27;20898;-51
2022/10/18 09:29:04;;;;;;;1272.93;625.35;;;16.60;99.90;;;;;;5140397;27;20253;-51
2022/10/18 09:31:43;;;;;;;1297.63;487.45;;;16.70;99.90;;;;;;5143552;27;20209;-51
2022/10/18 09:34:15;;;;;;;1382.05;545.97;;;16.70;99.90;;;;;;5151063;27;20220;-51
2022/10/18 09:36:45;;;;;;;1298.78;671.83;;;16.90;99.90;;;;;;5150913;27;20253;-51
2022/10/18 09:39:16;;;;;;;1370.72;498.90;;;17.00;99.90;;;;;;5148278;27;20202;-51
2022/10/18 09:41:49;;;;;;;1326.80;585.13;;;17.00;99.90;;;;;;5146276;27;20317;-52
2022/10/18 09:44:21;;;;;;;1320.47;632.67;;;17.10;99.90;;;;;;5142797;27;20203;-51
2022/10/18 09:46:57;;;;;;;1219.75;694.30;;;17.30;99.90;;;;;;5146489;27;20632;-51
2022/10/18 09:49:30;;;;;;;1765.38;646.38;;;17.30;99.90;;;;;;5143560;27;20230;-52
2022/10/18 09:52:03;;;;;;;1759.00;674.30;;;17.50;99.90;;;;;;5138510;27;20199;-52
2022/10/18 09:54:36;;;;;;;1521.97;601.30;;;17.60;99.90;;;;;;5128880;27;20301;-51
2022/10/18 09:57:09;;;;;;;1512.82;679.45;;;17.40;99.90;;;;;;5122474;27;20233;-51
2022/10/18 09:59:41;;;;;;;1101.88;545.55;;;17.40;99.90;;;;;;5150290;27;20289;-51
2022/10/18 10:02:14;;;;;;;1479.22;631.03;;;17.30;99.90;;;;;;5141256;27;20690;-51
2022/10/18 10:04:42;;;;;;;1408.35;514.80;;;17.20;99.90;;;;;;5146988;27;20242;-51
2022/10/18 10:07:13;;;;;;;1916.45;702.22;;;17.20;99.90;;;;;;5146022;27;20635;-51
2022/10/18 10:09:45;;;;;;;1385.32;599.35;;;17.10;99.90;;;;;;5126314;27;20298;-51
2022/10/18 10:12:38;;;;;;;1502.45;580.15;;;17.10;99.90;;;;;;5125888;27;20230;-51
2022/10/18 10:15:16;;;;;;;1339.88;563.63;;;17.20;99.90;;;;;;5103960;27;20202;-51
2022/10/18 10:17:54;;;;;;;1352.38;596.85;;;17.30;99.90;;;;;;5149776;27;20317;-51
2022/10/18 10:20:24;;;;;;;1727.60;678.28;;;17.40;99.90;;;;;;5154936;27;20289;-51
2022/10/18 10:22:53;;;;;;;1287.03;611.65;;;17.40;99.90;;;;;;5153183;27;20297;-51
2022/10/18 10:25:25;;;;;;;1307.90;629.67;;;17.40;99.90;;;;;;5153445;27;20669;-51
2022/10/18 10:27:53;;;;;;;1008.47;536.15;;;17.40;99.90;;;;;;5154474;27;20224;-51
2022/10/18 10:30:25;;;;;;;1384.30;715.30;;;17.40;99.90;;;;;;5155260;27;20288;-51
2022/10/18 10:32:55;;;;;;;1099.45;507.15;;;17.50;99.90;;;;;;5140983;27;20206;-51
2022/10/18 10:35:30;;;;;;;1258.15;601.97;;;17.50;99.90;;;;;;5154469;27;20305;-50
2022/10/18 10:38:24;;;;;;;1602.03;696.78;;;17.70;99.90;;;;;;5152954;27;20222;-51
2022/10/18 10:40:53;;;;;;;1250.97;681.65;;;17.80;99.90;;;;;;5152933;27;20820;-51
2022/10/18 10:43:25;;;;;;;1289.97;758.33;;;17.90;99.90;;;;;;5153483;27;20698;-51
2022/10/18 10:46:08;;;;;;;1631.90;646.63;;;18.00;99.90;;;;;;5152405;27;20221;-50
2022/10/18 10:48:47;;;;;;;1247.72;674.15;;;18.20;99.90;;;;;;5151143;27;20230;-51
2022/10/18 10:51:18;;;;;;;1214.53;725.00;;;18.20;99.90;;;;;;5153004;27;20594;-50
2022/10/18 10:53:57;;;;;;;1057.78;687.22;;;18.30;99.90;;;;;;5152773;27;20279;-51
2022/10/18 10:56:27;;;;;;;1340.95;465.75;;;18.30;99.90;;;;;;5154080;27;20221;-51
2022/10/18 10:59:00;;;;;;;1176.70;571.47;;;18.40;99.90;;;;;;5149717;27;20343;-51
2022/10/18 11:01:33;;;;;;;1388.80;580.58;;;18.50;99.90;;;;;;5131577;27;20222;-51
2022/10/18 11:04:23;;;;;;;1315.97;637.67;;;18.30;99.90;;;;;;5134856;27;20278;-51
2022/10/18 11:07:03;;;;;;;1466.55;736.72;;;18.30;99.90;;;;;;5146087;27;20230;-51
2022/10/18 11:09:45;;;;;;;1120.28;528.80;;;18.50;99.90;;;;;;5132497;27;20285;-51
2022/10/18 11:12:25;;;;;;;1052.35;535.47;;;18.40;99.90;;;;;;5142310;27;20689;-51
2022/10/18 11:15:04;;;;;;;1011.55;611.20;;;18.40;99.90;;;;;;5137456;27;20285;-51
2022/10/18 11:17:37;;;;;;;1240.68;702.03;;;18.50;99.90;;;;;;5145395;27;20217;-51
2022/10/18 11:20:21;;;;;;;1138.50;590.97;;;18.50;99.90;;;;;;5153398;27;20211;-51
2022/10/18 11:22:58;;;;;;;1322.13;620.42;;;18.60;99.90;;;;;;5136218;27;20286;-51
2022/10/18 11:25:48;;;;;;;1351.85;669.38;;;18.70;99.90;;;;;;5153232;27;20317;-51
2022/10/18 11:28:27;;;;;;;1318.68;656.75;;;18.80;99.90;;;;;;5152583;27;20349;-52
2022/10/18 11:31:08;;;;;;;1276.50;744.65;;;18.90;99.90;;;;;;5148385;27;20581;-51
2022/10/18 11:33:46;;;;;;;1380.68;740.67;;;19.00;99.90;;;;;;5142154;27;20201;-51
2022/10/18 11:36:41;;;;;;;1237.10;686.10;;;19.00;99.90;;;;;;5138648;27;20229;-52
2022/10/18 11:39:33;;;;;;;1567.25;651.17;;;19.10;99.90;;;;;;5147764;27;20321;-52
2022/10/18 11:42:11;;;;;;;1367.82;693.70;;;19.30;99.90;;;;;;5142247;27;20719;-51
2022/10/18 11:44:52;;;;;;;1244.57;611.05;;;19.30;99.90;;;;;;5152201;27;20210;-50
2022/10/18 11:47:28;;;;;;;1535.75;713.28;;;19.40;99.90;;;;;;5124348;27;20209;-51
2022/10/18 11:50:07;;;;;;;1153.00;619.45;;;19.40;99.90;;;;;;5153146;27;20209;-51
2022/10/18 11:52:44;;;;;;;1473.43;740.13;;;19.40;99.90;;;;;;5127065;27;20202;-52
2022/10/18 11:55:27;;;;;;;1295.10;640.53;;;19.40;99.90;;;;;;5152410;27;20239;-52
2022/10/18 11:58:07;;;;;;;1132.65;706.65;;;19.30;99.90;;;;;;5152589;27;20613;-51
2022/10/18 12:00:47;;;;;;;1376.88;660.15;;;19.20;99.90;;;;;;5147653;27;20263;-51
2022/10/18 12:03:34;;;;;;;963.67;702.38;;;19.20;99.90;;;;;;5133777;27;20312;-51
2022/10/18 12:06:06;;;;;;;1326.40;628.08;;;19.20;99.90;;;;;;5152250;27;20778;-52
2022/10/18 12:08:39;;;;;;;936.05;573.50;;;19.30;99.90;;;;;;5142982;27;20325;-51
2022/10/18 12:11:13;;;;;;;1260.90;685.75;;;19.20;99.90;;;;;;5134711;27;20295;-52
2022/10/18 12:13:48;;;;;;;1369.30;741.15;;;19.20;99.90;;;;;;5151648;27;20232;-50
2022/10/18 12:16:19;;;;;;;1344.80;728.00;;;19.30;99.90;;;;;;5148138;27;20308;-51
2022/10/18 12:19:13;;;;;;;1183.88;631.90;;;19.50;99.90;;;;;;5140856;27;20223;-51
2022/10/18 12:21:42;;;;;;;1289.63;712.80;;;19.70;99.90;;;;;;5150165;27;20294;-51
2022/10/18 12:24:17;;;;;;;1265.75;714.47;;;19.90;99.90;;;;;;5151424;27;20202;-51